createdAt,value
2023-04-04T00:00:39.172Z,1.30
2023-04-04T00:03:06.875Z,1.45
2023-04-04T00:05:35.608Z,1.30
2023-04-04T00:08:03.982Z,1.40
2023-04-04T00:10:31.456Z,1.48
2023-04-04T00:12:59.093Z,1.45
2023-04-04T00:15:27.307Z,1.20
2023-04-04T00:17:54.611Z,1.30
2023-04-04T00:20:21.950Z,1.20
2023-04-04T00:22:49.226Z,1.25
2023-04-04T00:25:16.590Z,1.45
2023-04-04T00:27:43.998Z,1.45
2023-04-04T00:30:12.450Z,1.45
2023-04-04T00:32:40.010Z,1.33
2023-04-04T00:35:07.658Z,1.20
2023-04-04T00:37:35.749Z,1.30
2023-04-04T00:40:04.237Z,1.48
2023-04-04T00:42:34.026Z,1.25
2023-04-04T00:45:01.542Z,1.38
2023-04-04T00:47:31.759Z,1.10
2023-04-04T00:49:59.138Z,1.45
2023-04-04T00:52:27.146Z,1.40
2023-04-04T00:54:56.817Z,1.50
2023-04-04T00:57:24.567Z,1.45
2023-04-04T00:59:52.086Z,1.50
2023-04-04T01:02:19.460Z,1.02
2023-04-04T01:04:47.275Z,1.33
2023-04-04T01:07:14.627Z,1.20
2023-04-04T01:09:42.542Z,1.35
2023-04-04T01:12:10.261Z,1.30
2023-04-04T01:14:37.609Z,1.20
2023-04-04T01:17:05.582Z,1.38
2023-04-04T01:19:42.055Z,1.20
2023-04-04T01:22:09.523Z,1.42
2023-04-04T01:24:39.240Z,1.30
2023-04-04T01:27:06.602Z,1.38
2023-04-04T01:29:34.058Z,1.20
2023-04-04T01:32:16.033Z,1.45
2023-04-04T01:34:47.258Z,1.45
2023-04-04T01:37:35.688Z,1.50
2023-04-04T01:40:17.088Z,1.60
2023-04-04T01:42:45.785Z,1.60
2023-04-04T01:45:13.700Z,1.70
2023-04-04T01:47:42.035Z,1.70
2023-04-04T01:50:11.289Z,1.40
2023-04-04T01:52:38.916Z,1.67
2023-04-04T01:55:06.483Z,1.60
2023-04-04T01:57:33.924Z,1.70
2023-04-04T02:00:01.309Z,1.70
2023-04-04T02:02:28.659Z,1.60
2023-04-04T02:04:56.030Z,1.80
2023-04-04T02:07:23.364Z,1.92
2023-04-04T02:09:50.597Z,1.85
2023-04-04T02:12:17.876Z,1.60
2023-04-04T02:14:45.286Z,1.52
2023-04-04T02:17:12.552Z,1.73
2023-04-04T02:19:40.725Z,1.75
2023-04-04T02:22:08.032Z,1.70
2023-04-04T02:24:35.582Z,1.50
2023-04-04T02:27:04.127Z,1.58
2023-04-04T02:29:31.774Z,1.60
2023-04-04T02:31:59.128Z,1.88
2023-04-04T02:34:26.562Z,1.50
2023-04-04T02:36:53.876Z,1.55
2023-04-04T02:39:21.252Z,1.67
2023-04-04T02:41:48.553Z,1.60
2023-04-04T02:44:15.854Z,1.70
2023-04-04T02:46:43.341Z,1.60
2023-04-04T02:49:10.589Z,1.42
2023-04-04T02:51:37.978Z,1.85
2023-04-04T02:54:05.418Z,1.50
2023-04-04T02:56:32.842Z,1.80
2023-04-04T02:59:00.243Z,1.70
2023-04-04T03:01:27.682Z,1.90
2023-04-04T03:03:55.362Z,1.88
2023-04-04T03:06:23.296Z,1.60
2023-04-04T03:08:51.166Z,1.42
2023-04-04T03:11:21.151Z,1.95
2023-04-04T03:13:51.156Z,1.60
2023-04-04T03:16:20.205Z,1.70
2023-04-04T03:18:47.837Z,1.55
2023-04-04T03:21:15.161Z,1.50
2023-04-04T03:23:43.113Z,1.48
2023-04-04T03:26:10.805Z,1.60
2023-04-04T03:28:38.293Z,1.70
2023-04-04T03:31:06.448Z,1.60
2023-04-04T03:33:38.192Z,1.50
2023-04-04T03:36:15.010Z,1.80
2023-04-04T03:38:42.349Z,1.40
2023-04-04T03:41:09.805Z,1.80
2023-04-04T03:43:37.475Z,1.83
2023-04-04T03:46:06.145Z,1.67
2023-04-04T03:48:34.229Z,1.98
2023-04-04T03:51:04.705Z,1.67
2023-04-04T03:53:32.221Z,2.10
2023-04-04T03:55:59.858Z,1.65
2023-04-04T03:58:28.984Z,1.77
2023-04-04T04:00:56.500Z,2.03
2023-04-04T04:03:23.986Z,1.70
2023-04-04T04:05:51.514Z,1.73
2023-04-04T04:08:18.878Z,2.00
2023-04-04T04:10:46.176Z,1.70
2023-04-04T04:13:13.452Z,1.80
2023-04-04T04:15:40.840Z,1.88
2023-04-04T04:18:08.218Z,2.08
2023-04-04T04:20:35.845Z,2.00
2023-04-04T04:23:03.162Z,1.90
2023-04-04T04:25:30.445Z,2.20
2023-04-04T04:27:58.068Z,2.10
2023-04-04T04:30:25.414Z,2.10
2023-04-04T04:32:53.048Z,1.80
2023-04-04T04:35:20.708Z,2.10
2023-04-04T04:37:48.053Z,2.08
2023-04-04T04:40:16.384Z,1.73
2023-04-04T04:42:47.217Z,1.58
2023-04-04T04:45:14.560Z,1.80
2023-04-04T04:47:42.048Z,1.50
2023-04-04T04:50:09.715Z,2.15
2023-04-04T04:52:38.226Z,1.90
2023-04-04T04:55:06.518Z,2.13
2023-04-04T04:57:34.418Z,2.00
2023-04-04T05:00:03.832Z,1.75
2023-04-04T05:02:31.466Z,2.10
2023-04-04T05:04:58.794Z,2.10
2023-04-04T05:07:26.076Z,2.00
2023-04-04T05:09:53.369Z,2.00
2023-04-04T05:12:20.666Z,1.92
2023-04-04T05:14:48.133Z,2.22
2023-04-04T05:17:15.581Z,2.10
2023-04-04T05:19:42.886Z,1.90
2023-04-04T05:22:10.163Z,2.08
2023-04-04T05:24:37.427Z,2.25
2023-04-04T05:27:04.757Z,2.10
2023-04-04T05:29:33.377Z,2.15
2023-04-04T05:32:00.646Z,2.00
2023-04-04T05:34:28.215Z,2.45
2023-04-04T05:36:55.569Z,2.00
2023-04-04T05:39:23.111Z,2.05
2023-04-04T05:41:50.734Z,2.33
2023-04-04T05:44:18.062Z,2.40
2023-04-04T05:46:45.322Z,2.28
2023-04-04T05:49:12.609Z,2.45
2023-04-04T05:51:39.941Z,2.40
2023-04-04T05:54:07.557Z,1.98
2023-04-04T05:56:35.608Z,2.00
2023-04-04T05:59:02.993Z,2.05
2023-04-04T06:01:30.671Z,2.00
2023-04-04T06:03:59.722Z,2.55
2023-04-04T06:06:27.620Z,2.10
2023-04-04T06:08:55.044Z,2.00
2023-04-04T06:11:23.050Z,2.22
2023-04-04T06:13:51.545Z,2.40
2023-04-04T06:16:18.956Z,2.33
2023-04-04T06:18:46.355Z,2.38
2023-04-04T06:21:13.861Z,2.50
2023-04-04T06:23:41.595Z,2.65
2023-04-04T06:26:09.044Z,2.30
2023-04-04T06:28:36.654Z,2.25
2023-04-04T06:31:06.960Z,2.55
2023-04-04T06:33:34.376Z,2.17
2023-04-04T06:36:01.673Z,2.55
2023-04-04T06:38:29.809Z,2.47
2023-04-04T06:40:57.418Z,2.58
2023-04-04T06:43:25.192Z,2.65
2023-04-04T06:45:52.605Z,2.60
2023-04-04T06:48:20.013Z,2.67
2023-04-04T06:50:47.380Z,2.60
2023-04-04T06:53:14.741Z,2.55
2023-04-04T06:55:42.311Z,2.47
2023-04-04T06:58:09.593Z,2.60
2023-04-04T07:00:37.172Z,2.63
2023-04-04T07:03:04.932Z,3.10
2023-04-04T07:05:32.367Z,2.90
2023-04-04T07:07:59.701Z,2.72
2023-04-04T07:10:27.230Z,2.53
2023-04-04T07:12:54.569Z,2.72
2023-04-04T07:15:21.861Z,2.33
2023-04-04T07:17:49.509Z,2.83
2023-04-04T07:20:16.969Z,2.60
2023-04-04T07:22:44.498Z,2.70
2023-04-04T07:25:13.233Z,2.80
2023-04-04T07:27:43.295Z,2.92
2023-04-04T07:30:11.773Z,2.72
2023-04-04T07:32:39.322Z,2.70
2023-04-04T07:35:08.164Z,2.90
2023-04-04T07:37:38.135Z,2.50
2023-04-04T07:40:08.700Z,3.00
2023-04-04T07:42:36.066Z,2.95
2023-04-04T07:45:03.490Z,2.55
2023-04-04T07:47:30.937Z,2.60
2023-04-04T07:49:58.226Z,2.63
2023-04-04T07:52:25.583Z,3.00
2023-04-04T07:54:53.303Z,2.60
2023-04-04T07:57:20.653Z,2.75
2023-04-04T07:59:47.921Z,3.13
2023-04-04T08:02:15.239Z,2.72
2023-04-04T08:04:42.633Z,2.78
2023-04-04T08:07:10.008Z,2.60
2023-04-04T08:09:37.705Z,2.72
2023-04-04T08:12:07.896Z,2.75
2023-04-04T08:14:35.474Z,2.67
2023-04-04T08:17:03.119Z,2.47
2023-04-04T08:19:30.756Z,2.80
2023-04-04T08:21:58.187Z,2.90
2023-04-04T08:24:27.121Z,2.88
2023-04-04T08:27:04.536Z,2.45
2023-04-04T08:29:34.283Z,2.40
2023-04-04T08:32:01.637Z,2.50
2023-04-04T08:34:28.961Z,2.65
2023-04-04T08:36:56.523Z,2.67
2023-04-04T08:39:23.797Z,2.55
2023-04-04T08:41:57.875Z,2.28
2023-04-04T08:44:26.197Z,2.67
2023-04-04T08:46:54.182Z,2.30
2023-04-04T08:49:23.941Z,2.25
2023-04-04T08:51:54.602Z,2.58
2023-04-04T08:54:22.698Z,2.33
2023-04-04T08:56:51.721Z,2.17
2023-04-04T08:59:21.194Z,2.60
2023-04-04T09:01:49.311Z,2.50
2023-04-04T09:04:17.883Z,2.40
2023-04-04T09:06:45.934Z,2.28
2023-04-04T09:09:14.638Z,2.63
2023-04-04T09:11:42.714Z,2.35
2023-04-04T09:14:09.984Z,2.28
2023-04-04T09:16:37.383Z,2.30
2023-04-04T09:19:04.789Z,2.25
2023-04-04T09:21:34.266Z,2.30
2023-04-04T09:24:03.037Z,2.25
2023-04-04T09:26:47.611Z,2.40
2023-04-04T09:29:18.757Z,2.30
2023-04-04T09:31:46.923Z,2.08
2023-04-04T09:34:16.682Z,2.08
2023-04-04T09:36:46.107Z,2.20
2023-04-04T09:39:17.299Z,2.10
2023-04-04T09:41:48.390Z,2.10
2023-04-04T09:44:17.451Z,2.10
2023-04-04T09:46:45.369Z,2.00
2023-04-04T09:49:20.679Z,2.03
2023-04-04T09:51:57.723Z,2.00
2023-04-04T09:54:29.502Z,2.05
2023-04-04T09:56:57.790Z,2.10
2023-04-04T09:59:25.251Z,2.55
2023-04-04T10:01:55.331Z,2.20
2023-04-04T10:04:24.660Z,2.30
2023-04-04T10:06:55.797Z,1.95
2023-04-04T10:09:23.695Z,2.40
2023-04-04T10:11:51.095Z,2.50
2023-04-04T10:14:18.847Z,2.20
2023-04-04T10:16:46.497Z,2.28
2023-04-04T10:19:17.854Z,2.63
2023-04-04T10:21:46.818Z,1.80
2023-04-04T10:24:14.339Z,2.55
2023-04-04T10:26:41.718Z,2.20
2023-04-04T10:29:09.125Z,2.10
2023-04-04T10:31:43.653Z,2.20
2023-04-04T10:36:53.816Z,1.90
2023-04-04T10:39:26.040Z,2.17
2023-04-04T10:41:56.613Z,2.10
2023-04-04T10:44:37.774Z,2.33
2023-04-04T10:47:29.384Z,2.03
2023-04-04T10:49:58.289Z,2.33
2023-04-04T10:52:31.517Z,2.60
2023-04-04T10:55:06.333Z,2.25
2023-04-04T10:57:42.478Z,2.10
2023-04-04T11:00:13.030Z,1.95
2023-04-04T11:02:58.507Z,2.30
2023-04-04T11:05:34.136Z,2.20
2023-04-04T11:08:09.743Z,2.00
2023-04-04T11:10:47.177Z,2.00
2023-04-04T11:13:29.269Z,2.60
2023-04-04T11:15:58.124Z,1.83
2023-04-04T11:18:40.437Z,1.95
2023-04-04T11:21:32.089Z,2.45
2023-04-04T11:23:59.786Z,2.05
2023-04-04T11:26:30.134Z,2.10
2023-04-04T11:29:03.614Z,2.30
2023-04-04T11:31:34.819Z,2.20
2023-04-04T11:34:13.183Z,2.42
2023-04-04T11:36:41.476Z,2.25
2023-04-04T11:39:22.818Z,2.10
2023-04-04T11:42:08.137Z,2.22
2023-04-04T11:44:42.972Z,2.20
2023-04-04T11:47:11.934Z,2.25
2023-04-04T11:49:44.599Z,2.05
2023-04-04T11:52:16.617Z,2.40
2023-04-04T11:54:45.752Z,2.40
2023-04-04T11:57:14.823Z,2.40
2023-04-04T11:59:49.808Z,2.10
2023-04-04T12:02:21.984Z,2.20
2023-04-04T12:04:52.166Z,2.38
2023-04-04T12:07:19.744Z,2.08
2023-04-04T12:09:48.065Z,2.00
2023-04-04T12:12:16.558Z,2.20
2023-04-04T12:14:44.774Z,2.60
2023-04-04T12:17:12.497Z,2.10
2023-04-04T12:19:40.887Z,2.03
2023-04-04T12:22:08.795Z,1.95
2023-04-04T12:24:36.923Z,1.80
2023-04-04T12:27:05.069Z,1.90
2023-04-04T12:29:36.377Z,1.92
2023-04-04T12:32:05.919Z,2.20
2023-04-04T12:34:36.209Z,2.10
2023-04-04T12:37:04.166Z,1.50
2023-04-04T12:39:31.981Z,2.05
2023-04-04T12:42:05.432Z,1.83
2023-04-04T12:44:34.761Z,2.00
2023-04-04T12:47:11.480Z,1.73
2023-04-04T12:49:48.759Z,2.25
2023-04-04T12:52:21.780Z,1.88
2023-04-04T12:55:06.606Z,1.70
2023-04-04T12:57:36.733Z,1.70
2023-04-04T13:00:06.643Z,1.83
2023-04-04T13:02:36.610Z,1.80
2023-04-04T13:05:07.244Z,1.85
2023-04-04T13:07:44.114Z,1.98
2023-04-04T13:10:15.986Z,2.03
2023-04-04T13:13:01.088Z,2.13
2023-04-04T13:18:26.272Z,1.85
2023-04-04T13:20:55.017Z,1.98
2023-04-04T13:23:23.209Z,2.00
2023-04-04T13:25:51.374Z,1.90
2023-04-04T13:28:18.667Z,2.10
2023-04-04T13:30:49.577Z,2.00
2023-04-04T13:33:18.182Z,1.90
2023-04-04T13:35:46.711Z,1.70
2023-04-04T13:38:14.080Z,1.70
2023-04-04T13:40:41.617Z,1.77
2023-04-04T13:43:11.358Z,2.08
2023-04-04T13:45:38.930Z,1.80
2023-04-04T13:48:06.658Z,1.90
2023-04-04T13:50:36.900Z,1.90
2023-04-04T13:53:04.251Z,2.00
2023-04-04T13:55:31.857Z,2.15
2023-04-04T13:57:59.154Z,1.90
2023-04-04T14:00:26.753Z,2.03
2023-04-04T14:02:55.840Z,1.85
2023-04-04T14:05:24.494Z,2.00
2023-04-04T14:07:51.966Z,2.08
2023-04-04T14:10:19.429Z,2.00
2023-04-04T14:12:46.886Z,2.15
2023-04-04T14:15:14.521Z,2.00
2023-04-04T14:17:42.512Z,2.20
2023-04-04T14:20:10.679Z,2.40
2023-04-04T14:22:38.033Z,2.17
2023-04-04T14:25:05.480Z,2.10
2023-04-04T14:27:32.846Z,1.98
2023-04-04T14:30:00.273Z,2.75
2023-04-04T14:32:28.063Z,2.05
2023-04-04T14:34:55.668Z,2.13
2023-04-04T14:37:23.023Z,2.30
2023-04-04T14:39:50.345Z,2.40
2023-04-04T14:42:17.686Z,2.47
2023-04-04T14:44:45.043Z,2.40
2023-04-04T14:47:12.275Z,2.50
2023-04-04T14:49:39.627Z,2.25
2023-04-04T14:52:06.925Z,2.33
2023-04-04T14:54:34.282Z,2.22
2023-04-04T14:57:02.302Z,2.08
2023-04-04T14:59:29.927Z,2.40
2023-04-04T15:01:58.091Z,2.00
2023-04-04T15:04:25.481Z,2.33
2023-04-04T15:06:53.513Z,2.25
2023-04-04T15:09:21.575Z,2.40
2023-04-04T15:11:49.681Z,2.10
2023-04-04T15:14:16.947Z,2.15
2023-04-04T15:16:44.265Z,2.10
2023-04-04T15:19:13.781Z,2.33
2023-04-04T15:21:41.318Z,2.08
2023-04-04T15:24:08.717Z,2.08
2023-04-04T15:26:36.189Z,2.00
2023-04-04T15:29:04.600Z,1.77
2023-04-04T15:31:32.286Z,1.92
2023-04-04T15:34:00.626Z,2.10
2023-04-04T15:36:28.977Z,2.05
2023-04-04T15:38:56.634Z,1.95
2023-04-04T15:41:24.336Z,2.00
2023-04-04T15:43:51.655Z,2.40
2023-04-04T15:46:18.961Z,2.03
2023-04-04T15:48:48.002Z,2.03
2023-04-04T15:51:15.739Z,2.20
2023-04-04T15:53:43.053Z,2.45
2023-04-04T15:56:10.876Z,2.33
2023-04-04T15:58:38.258Z,2.28
2023-04-04T16:01:07.477Z,2.63
2023-04-04T16:03:34.879Z,3.30
2023-04-04T16:06:02.298Z,2.85
2023-04-04T16:08:29.536Z,2.95
2023-04-04T16:10:58.471Z,2.95
2023-04-04T16:13:25.889Z,3.17
2023-04-04T16:15:53.223Z,2.97
2023-04-04T16:18:20.766Z,2.65
2023-04-04T16:20:48.125Z,2.53
2023-04-04T16:23:15.436Z,3.05
2023-04-04T16:25:43.411Z,2.72
2023-04-04T16:28:10.997Z,2.88
2023-04-04T16:30:38.527Z,2.80
2023-04-04T16:33:06.879Z,2.80
2023-04-04T16:35:36.019Z,2.80
2023-04-04T16:38:03.460Z,2.53
2023-04-04T16:40:34.759Z,2.90
2023-04-04T16:43:02.350Z,2.60
2023-04-04T16:45:29.797Z,2.45
2023-04-04T16:47:57.168Z,3.05
2023-04-04T16:50:25.658Z,2.83
2023-04-04T16:52:52.911Z,3.63
2023-04-04T16:55:21.774Z,3.03
2023-04-04T16:57:49.201Z,3.30
2023-04-04T17:00:17.342Z,3.20
2023-04-04T17:02:47.694Z,3.20
2023-04-04T17:05:15.925Z,3.10
2023-04-04T17:07:43.488Z,2.85
2023-04-04T17:10:12.058Z,3.08
2023-04-04T17:12:39.956Z,3.60
2023-04-04T17:15:09.440Z,3.17
2023-04-04T17:17:36.851Z,3.40
2023-04-04T17:20:05.378Z,3.10
2023-04-04T17:22:32.805Z,3.15
2023-04-04T17:25:00.092Z,3.63
2023-04-04T17:27:27.379Z,3.67
2023-04-04T17:29:54.613Z,3.70
2023-04-04T17:32:22.112Z,3.78
2023-04-04T17:34:49.727Z,3.55
2023-04-04T17:37:16.998Z,3.40
2023-04-04T17:39:45.535Z,3.60
2023-04-04T17:42:13.046Z,3.70
2023-04-04T17:44:40.436Z,3.75
2023-04-04T17:47:08.534Z,3.72
2023-04-04T17:49:36.669Z,3.70
2023-04-04T17:52:04.685Z,3.20
2023-04-04T17:54:32.087Z,3.88
2023-04-04T17:57:00.209Z,3.72
2023-04-04T17:59:27.929Z,3.60
2023-04-04T18:01:55.580Z,3.75
2023-04-04T18:04:23.936Z,3.83
2023-04-04T18:06:52.309Z,3.70
2023-04-04T18:09:19.706Z,3.38
2023-04-04T18:11:47.129Z,3.50
2023-04-04T18:14:14.432Z,4.28
2023-04-04T18:16:42.228Z,3.50
2023-04-04T18:19:10.323Z,3.38
2023-04-04T18:21:38.457Z,3.42
2023-04-04T18:24:07.883Z,3.58
2023-04-04T18:26:35.380Z,3.70
2023-04-04T18:29:02.701Z,3.88
2023-04-04T18:31:30.101Z,3.60
2023-04-04T18:33:57.588Z,3.63
2023-04-04T18:36:24.915Z,3.53
2023-04-04T18:38:52.549Z,3.60
2023-04-04T18:41:20.794Z,3.70
2023-04-04T18:43:48.116Z,3.83
2023-04-04T18:46:15.495Z,4.53
2023-04-04T18:48:42.841Z,4.43
2023-04-04T18:51:10.403Z,4.30
2023-04-04T18:53:37.703Z,4.63
2023-04-04T18:56:05.026Z,4.60
2023-04-04T18:58:32.967Z,4.93
2023-04-04T19:01:02.691Z,4.60
2023-04-04T19:03:36.611Z,5.43
2023-04-04T19:06:06.470Z,5.00
2023-04-04T19:08:38.701Z,5.00
2023-04-04T19:11:06.082Z,4.50
2023-04-04T19:13:33.736Z,5.18
2023-04-04T19:16:01.221Z,4.68
2023-04-04T19:18:29.204Z,7.07
2023-04-04T19:20:56.720Z,8.65
2023-04-04T19:23:23.989Z,7.63
2023-04-04T19:25:51.434Z,10.75
2023-04-04T19:28:18.819Z,10.30
2023-04-04T19:30:50.151Z,9.50
2023-04-04T19:33:21.309Z,8.93
2023-04-04T19:35:56.546Z,8.38
2023-04-04T19:38:29.688Z,7.90
2023-04-04T19:40:58.096Z,8.00
2023-04-04T19:43:26.477Z,8.60
2023-04-04T19:45:56.429Z,7.93
2023-04-04T19:48:46.191Z,7.60
2023-04-04T19:51:19.986Z,8.90
2023-04-04T19:53:52.399Z,8.87
2023-04-04T19:56:24.373Z,8.50
2023-04-04T19:58:55.397Z,8.13
2023-04-04T20:01:25.140Z,7.97
2023-04-04T20:03:52.436Z,7.43
2023-04-04T20:06:31.676Z,7.80
2023-04-04T20:09:07.223Z,7.45
2023-04-04T20:11:36.221Z,7.18
2023-04-04T20:14:07.644Z,7.50
2023-04-04T20:16:35.687Z,6.75
2023-04-04T20:19:06.634Z,6.70
2023-04-04T20:21:35.731Z,6.78
2023-04-04T20:24:08.325Z,5.95
2023-04-04T20:26:36.261Z,6.30
2023-04-04T20:29:08.408Z,6.78
2023-04-04T20:31:39.929Z,6.63
2023-04-04T20:34:09.559Z,6.40
2023-04-04T20:36:41.993Z,6.50
2023-04-04T20:39:46.173Z,6.53
2023-04-04T20:42:31.739Z,6.28
2023-04-04T20:45:26.526Z,6.43
2023-04-04T20:47:55.111Z,6.47
2023-04-04T20:50:27.082Z,6.43
2023-04-04T20:52:59.434Z,6.68
2023-04-04T20:55:29.328Z,6.55
2023-04-04T20:58:21.890Z,6.22
2023-04-04T21:00:49.286Z,6.15
2023-04-04T21:03:25.259Z,6.70
2023-04-04T21:05:54.545Z,6.20
2023-04-04T21:08:31.448Z,6.85
2023-04-04T21:10:59.786Z,6.78
2023-04-04T21:13:38.613Z,6.03
2023-04-04T21:16:16.705Z,6.38
2023-04-04T21:18:45.012Z,6.65
2023-04-04T21:21:13.487Z,6.43
2023-04-04T21:23:45.809Z,6.53
2023-04-04T21:26:39.983Z,6.18
2023-04-04T21:29:16.693Z,6.30
2023-04-04T21:31:44.124Z,5.90
2023-04-04T21:34:17.362Z,6.70
2023-04-04T21:36:46.165Z,6.18
2023-04-04T21:39:29.532Z,6.43
2023-04-04T21:42:03.631Z,6.07
2023-04-04T21:44:32.284Z,6.40
2023-04-04T21:46:59.554Z,6.78
2023-04-04T21:49:27.175Z,6.45
2023-04-04T21:51:54.489Z,6.65
2023-04-04T21:54:22.638Z,6.03
2023-04-04T21:56:49.898Z,6.75
2023-04-04T21:59:17.254Z,7.55
2023-04-04T22:01:44.618Z,6.25
2023-04-04T22:04:11.878Z,6.40
2023-04-04T22:06:39.333Z,6.38
2023-04-04T22:09:06.945Z,6.47
2023-04-04T22:11:34.961Z,6.45
2023-04-04T22:14:06.820Z,6.72
2023-04-04T22:16:38.983Z,6.78
2023-04-04T22:19:07.655Z,6.63
2023-04-04T22:21:37.021Z,6.40
2023-04-04T22:24:05.801Z,6.38
2023-04-04T22:26:33.830Z,6.22
2023-04-04T22:29:06.121Z,6.35
2023-04-04T22:31:37.940Z,7.18
2023-04-04T22:34:06.373Z,6.22
2023-04-04T22:36:35.252Z,5.72
2023-04-04T22:39:02.900Z,6.32
2023-04-04T22:41:30.446Z,6.82
2023-04-04T22:43:58.289Z,6.22
2023-04-04T22:46:29.237Z,6.03
2023-04-04T22:49:07.114Z,6.03
2023-04-04T22:51:43.290Z,6.15
2023-04-04T22:54:14.836Z,5.72
2023-04-04T22:56:42.344Z,6.00
2023-04-04T22:59:09.957Z,6.03
2023-04-04T23:01:37.362Z,6.35
2023-04-04T23:04:04.741Z,5.30
2023-04-04T23:06:32.425Z,6.00
2023-04-04T23:08:59.712Z,5.88
2023-04-04T23:11:27.476Z,5.97
2023-04-04T23:13:57.023Z,5.72
2023-04-04T23:16:26.218Z,5.82
2023-04-04T23:18:53.734Z,6.30
2023-04-04T23:21:22.086Z,5.60
2023-04-04T23:23:49.661Z,5.53
2023-04-04T23:26:17.039Z,5.80
2023-04-04T23:28:44.409Z,5.68
2023-04-04T23:31:11.684Z,5.82
2023-04-04T23:33:39.022Z,5.65
2023-04-04T23:36:06.900Z,5.60
2023-04-04T23:38:34.214Z,5.78
2023-04-04T23:41:01.638Z,5.40
2023-04-04T23:43:28.914Z,5.95
2023-04-04T23:45:56.238Z,5.55
2023-04-04T23:48:23.532Z,5.43
2023-04-04T23:50:54.456Z,5.57
2023-04-04T23:53:22.069Z,5.75
2023-04-04T23:55:49.911Z,5.20
2023-04-04T23:58:17.251Z,5.30
